createdAt,value
2017-12-21T00:00:07.913Z,19.98
2017-12-21T00:02:36.364Z,19.50
2017-12-21T00:05:03.998Z,21.35
2017-12-21T00:07:31.621Z,17.90
2017-12-21T00:09:59.287Z,21.08
2017-12-21T00:12:27.142Z,18.17
2017-12-21T00:14:54.841Z,21.25
2017-12-21T00:17:22.478Z,18.73
2017-12-21T00:19:50.127Z,16.80
2017-12-21T00:22:29.614Z,18.67
2017-12-21T00:24:57.254Z,21.92
2017-12-21T00:27:24.916Z,21.83
2017-12-21T00:29:57.141Z,19.98
2017-12-21T00:32:25.842Z,20.12
2017-12-21T00:34:53.557Z,19.73
2017-12-21T00:37:22.936Z,17.35
2017-12-21T00:39:52.661Z,20.02
2017-12-21T00:42:20.308Z,21.45
2017-12-21T00:44:48.116Z,19.58
2017-12-21T00:47:15.756Z,17.87
2017-12-21T00:49:43.389Z,20.00
2017-12-21T00:52:11.055Z,22.40
2017-12-21T00:54:38.685Z,19.27
2017-12-21T00:57:06.386Z,18.77
2017-12-21T00:59:34.019Z,19.87
2017-12-21T01:02:01.649Z,19.12
2017-12-21T01:04:29.307Z,17.25
2017-12-21T01:06:57.253Z,15.30
2017-12-21T01:09:24.942Z,17.50
2017-12-21T01:11:52.600Z,15.75
2017-12-21T01:14:21.002Z,18.77
2017-12-21T01:16:48.664Z,16.55
2017-12-21T01:19:16.314Z,16.80
2017-12-21T01:21:44.784Z,16.77
2017-12-21T01:24:12.414Z,15.23
2017-12-21T01:26:40.058Z,14.10
2017-12-21T01:29:07.794Z,19.33
2017-12-21T01:31:35.450Z,15.48
2017-12-21T01:34:03.116Z,17.30
2017-12-21T01:36:32.190Z,16.30
2017-12-21T01:38:59.880Z,18.27
2017-12-21T01:41:28.354Z,14.70
2017-12-21T01:43:56.290Z,15.80
2017-12-21T01:46:24.747Z,16.95
2017-12-21T01:48:52.373Z,15.32
2017-12-21T01:51:20.019Z,17.73
2017-12-21T01:53:47.769Z,16.77
2017-12-21T01:56:15.525Z,15.75
2017-12-21T01:58:43.194Z,16.83
2017-12-21T02:01:10.837Z,18.23
2017-12-21T02:03:38.470Z,17.30
2017-12-21T02:06:06.223Z,16.58
2017-12-21T02:08:33.878Z,16.92
2017-12-21T02:11:01.530Z,15.52
2017-12-21T02:13:29.180Z,15.32
2017-12-21T02:15:57.746Z,16.25
2017-12-21T02:18:26.220Z,17.33
2017-12-21T02:20:54.642Z,18.73
2017-12-21T02:23:22.293Z,19.33
2017-12-21T02:25:49.968Z,16.98
2017-12-21T02:28:18.432Z,16.58
2017-12-21T02:30:46.112Z,18.90
2017-12-21T02:33:14.598Z,18.02
2017-12-21T02:35:42.272Z,19.50
2017-12-21T02:38:09.907Z,21.10
2017-12-21T02:40:37.912Z,17.67
2017-12-21T02:43:06.347Z,20.60
2017-12-21T02:45:33.979Z,18.67
2017-12-21T02:48:01.640Z,21.30
2017-12-21T02:50:29.283Z,17.77
2017-12-21T02:52:57.085Z,15.90
2017-12-21T02:55:24.765Z,16.67
2017-12-21T02:57:52.410Z,20.50
2017-12-21T03:00:20.072Z,17.02
2017-12-21T03:02:47.782Z,18.83
2017-12-21T03:05:15.400Z,20.75
2017-12-21T03:07:43.061Z,17.37
2017-12-21T03:10:10.697Z,19.90
2017-12-21T03:12:38.419Z,20.88
2017-12-21T03:15:06.098Z,20.62
2017-12-21T03:17:33.836Z,20.02
2017-12-21T03:20:02.297Z,20.42
2017-12-21T03:22:30.714Z,19.90
2017-12-21T03:24:58.386Z,18.80
2017-12-21T03:27:26.068Z,21.42
2017-12-21T03:29:53.835Z,17.48
2017-12-21T03:32:21.499Z,18.60
2017-12-21T03:34:49.129Z,19.98
2017-12-21T03:37:16.901Z,22.92
2017-12-21T03:39:44.537Z,22.00
2017-12-21T03:42:12.178Z,20.27
2017-12-21T03:44:39.861Z,27.25
2017-12-21T03:47:07.669Z,24.70
2017-12-21T03:49:35.332Z,20.10
2017-12-21T03:52:02.962Z,30.80
2017-12-21T03:54:30.582Z,20.12
2017-12-21T03:56:58.556Z,17.08
2017-12-21T03:59:26.227Z,17.10
2017-12-21T04:01:53.914Z,12.93
2017-12-21T04:04:22.352Z,19.73
2017-12-21T04:06:50.007Z,17.20
2017-12-21T04:09:17.724Z,22.48
2017-12-21T04:11:45.369Z,19.02
2017-12-21T04:14:13.044Z,24.25
2017-12-21T04:16:40.685Z,16.62
2017-12-21T04:19:08.319Z,18.02
2017-12-21T04:21:35.984Z,12.95
2017-12-21T04:24:03.705Z,19.35
2017-12-21T04:26:31.358Z,16.52
2017-12-21T04:28:58.992Z,20.73
2017-12-21T04:31:26.731Z,12.63
2017-12-21T04:33:54.391Z,10.75
2017-12-21T04:36:22.025Z,14.07
2017-12-21T04:38:49.693Z,13.68
2017-12-21T04:41:17.343Z,20.10
2017-12-21T04:43:44.981Z,14.75
2017-12-21T04:46:12.656Z,14.75
2017-12-21T04:48:40.286Z,17.77
2017-12-21T04:51:08.119Z,16.98
2017-12-21T04:53:35.784Z,10.80
2017-12-21T04:56:03.496Z,11.70
2017-12-21T04:58:31.934Z,14.98
2017-12-21T05:00:59.570Z,12.93
2017-12-21T05:03:27.245Z,14.45
2017-12-21T05:05:55.637Z,13.57
2017-12-21T05:08:23.264Z,11.93
2017-12-21T05:10:51.674Z,14.82
2017-12-21T05:13:19.351Z,12.63
2017-12-21T05:15:47.182Z,20.20
2017-12-21T05:18:14.813Z,11.50
2017-12-21T05:20:42.448Z,16.20
2017-12-21T05:23:10.107Z,16.00
2017-12-21T05:25:37.829Z,15.40
2017-12-21T05:28:05.504Z,13.80
2017-12-21T05:30:33.125Z,12.65
2017-12-21T05:33:00.750Z,19.55
2017-12-21T05:35:29.819Z,9.80
2017-12-21T05:37:57.731Z,11.52
2017-12-21T05:40:25.397Z,16.42
2017-12-21T05:42:53.018Z,14.15
2017-12-21T05:45:22.627Z,16.37
2017-12-21T05:47:54.068Z,16.08
2017-12-21T05:50:21.678Z,14.75
2017-12-21T05:52:49.341Z,18.20
2017-12-21T05:55:17.114Z,15.55
2017-12-21T05:57:44.881Z,16.20
2017-12-21T06:00:16.275Z,14.65
2017-12-21T06:02:43.979Z,12.60
2017-12-21T06:05:11.646Z,16.23
2017-12-21T06:07:39.275Z,15.27
2017-12-21T06:10:07.024Z,15.70
2017-12-21T06:12:34.674Z,14.45
2017-12-21T06:15:02.316Z,17.20
2017-12-21T06:17:30.742Z,11.35
2017-12-21T06:19:58.373Z,14.50
2017-12-21T06:22:25.991Z,13.40
2017-12-21T06:24:53.777Z,9.68
2017-12-21T06:27:21.400Z,11.70
2017-12-21T06:29:49.410Z,10.80
2017-12-21T06:32:17.172Z,16.37
2017-12-21T06:34:45.560Z,13.55
2017-12-21T06:37:13.209Z,7.65
2017-12-21T06:39:40.821Z,9.48
2017-12-21T06:42:09.251Z,10.52
2017-12-21T06:44:37.015Z,10.10
2017-12-21T06:47:04.637Z,10.25
2017-12-21T06:49:32.313Z,11.18
2017-12-21T06:52:00.001Z,9.75
2017-12-21T06:54:27.800Z,9.82
2017-12-21T06:56:55.427Z,10.70
2017-12-21T06:59:23.042Z,8.75
2017-12-21T07:01:50.705Z,8.40
2017-12-21T07:04:18.314Z,7.60
2017-12-21T07:06:46.758Z,7.53
2017-12-21T07:09:14.378Z,7.25
2017-12-21T07:11:41.991Z,7.28
2017-12-21T07:14:09.698Z,8.18
2017-12-21T07:16:37.346Z,7.30
2017-12-21T07:19:04.996Z,7.97
2017-12-21T07:21:32.636Z,8.25
2017-12-21T07:24:00.238Z,6.62
2017-12-21T07:26:28.170Z,6.12
2017-12-21T07:28:56.698Z,7.37
2017-12-21T07:31:24.346Z,5.85
2017-12-21T07:33:51.962Z,7.60
2017-12-21T07:36:19.570Z,5.80
2017-12-21T07:38:48.085Z,6.95
2017-12-21T07:41:15.714Z,6.30
2017-12-21T07:43:43.395Z,7.37
2017-12-21T07:46:11.045Z,7.55
2017-12-21T07:48:38.676Z,5.72
2017-12-21T07:51:06.339Z,6.72
2017-12-21T07:53:33.966Z,7.40
2017-12-21T07:56:01.626Z,8.40
2017-12-21T07:58:29.237Z,6.15
2017-12-21T08:00:57.034Z,6.80
2017-12-21T08:03:24.697Z,6.22
2017-12-21T08:05:53.081Z,8.60
2017-12-21T08:08:20.738Z,5.95
2017-12-21T08:10:48.369Z,6.30
2017-12-21T08:13:16.910Z,10.52
2017-12-21T08:15:44.563Z,6.00
2017-12-21T08:18:12.173Z,7.40
2017-12-21T08:20:39.834Z,7.57
2017-12-21T08:23:07.594Z,7.47
2017-12-21T08:25:35.215Z,7.70
2017-12-21T08:28:02.869Z,9.27
2017-12-21T08:30:30.485Z,8.07
2017-12-21T08:32:58.162Z,9.07
2017-12-21T08:35:25.993Z,7.35
2017-12-21T08:37:54.537Z,9.15
2017-12-21T08:40:22.182Z,6.40
2017-12-21T08:42:49.800Z,6.70
2017-12-21T08:45:17.456Z,8.77
2017-12-21T08:47:45.840Z,8.25
2017-12-21T08:50:13.462Z,6.37
2017-12-21T08:52:41.982Z,6.55
2017-12-21T08:55:09.601Z,6.70
2017-12-21T08:57:37.241Z,7.45
2017-12-21T09:00:04.858Z,6.97
2017-12-21T09:02:32.497Z,8.00
2017-12-21T09:05:00.151Z,8.40
2017-12-21T09:07:27.889Z,6.80
2017-12-21T09:09:55.559Z,9.00
2017-12-21T09:12:23.264Z,6.65
2017-12-21T09:14:50.869Z,7.50
2017-12-21T09:17:18.538Z,4.97
2017-12-21T09:19:46.251Z,6.32
2017-12-21T09:22:13.911Z,7.20
2017-12-21T09:24:41.518Z,5.90
2017-12-21T09:27:09.154Z,5.57
2017-12-21T09:29:37.042Z,7.32
2017-12-21T09:32:05.425Z,6.80
2017-12-21T09:34:33.086Z,5.40
2017-12-21T09:37:00.723Z,7.47
2017-12-21T09:39:28.355Z,7.43
2017-12-21T09:41:56.052Z,10.98
2017-12-21T09:44:24.580Z,6.45
2017-12-21T09:46:52.234Z,7.40
2017-12-21T09:49:19.851Z,6.60
2017-12-21T09:51:47.597Z,4.75
2017-12-21T09:54:15.258Z,6.78
2017-12-21T09:56:42.894Z,7.05
2017-12-21T09:59:11.298Z,7.22
2017-12-21T10:01:38.926Z,7.18
2017-12-21T10:04:06.691Z,6.75
2017-12-21T10:06:34.340Z,7.90
2017-12-21T10:09:01.967Z,8.35
2017-12-21T10:11:29.890Z,8.77
2017-12-21T10:13:57.718Z,7.85
2017-12-21T10:16:25.351Z,6.60
2017-12-21T10:18:53.049Z,7.68
2017-12-21T10:21:20.677Z,7.00
2017-12-21T10:23:48.323Z,6.22
2017-12-21T10:26:15.951Z,5.60
2017-12-21T10:28:43.862Z,5.75
2017-12-21T10:31:11.525Z,5.65
2017-12-21T10:33:39.147Z,5.90
2017-12-21T10:36:07.042Z,6.78
2017-12-21T10:38:34.666Z,3.30
2017-12-21T10:41:02.275Z,3.95
2017-12-21T10:43:30.740Z,6.37
2017-12-21T10:45:58.389Z,6.40
2017-12-21T10:48:26.245Z,5.10
2017-12-21T10:50:54.615Z,4.95
2017-12-21T10:53:22.232Z,6.40
2017-12-21T10:55:49.882Z,5.37
2017-12-21T10:58:17.605Z,4.93
2017-12-21T11:00:45.270Z,6.07
2017-12-21T11:03:12.900Z,5.30
2017-12-21T11:05:40.523Z,6.07
2017-12-21T11:08:08.191Z,6.20
2017-12-21T11:10:35.813Z,5.80
2017-12-21T11:13:03.516Z,5.45
2017-12-21T11:15:31.134Z,5.30
2017-12-21T11:17:58.746Z,5.60
2017-12-21T11:20:26.426Z,5.95
2017-12-21T11:22:54.042Z,5.10
2017-12-21T11:25:21.723Z,5.75
2017-12-21T11:27:49.353Z,5.22
2017-12-21T11:30:17.074Z,5.10
2017-12-21T11:32:44.759Z,4.65
2017-12-21T11:35:12.370Z,6.32
2017-12-21T11:37:40.013Z,5.53
2017-12-21T11:40:07.743Z,4.90
2017-12-21T11:42:36.136Z,5.35
2017-12-21T11:45:04.628Z,4.78
2017-12-21T11:47:32.260Z,5.22
2017-12-21T11:49:59.928Z,5.80
2017-12-21T11:52:27.746Z,4.78
2017-12-21T11:54:55.377Z,5.50
2017-12-21T11:57:23.121Z,5.30
2017-12-21T11:59:50.740Z,5.60
2017-12-21T12:02:18.378Z,6.12
2017-12-21T12:04:46.041Z,5.95
2017-12-21T12:07:13.792Z,6.25
2017-12-21T12:09:42.222Z,7.53
2017-12-21T12:12:09.840Z,7.55
2017-12-21T12:14:37.595Z,7.55
2017-12-21T12:17:05.206Z,8.45
2017-12-21T12:19:33.591Z,7.85
2017-12-21T12:22:01.245Z,9.45
2017-12-21T12:24:28.870Z,6.93
2017-12-21T12:26:56.657Z,9.77
2017-12-21T12:29:24.281Z,11.30
2017-12-21T12:31:51.912Z,11.10
2017-12-21T12:34:20.338Z,13.50
2017-12-21T12:36:48.049Z,13.80
2017-12-21T12:39:15.719Z,14.75
2017-12-21T12:41:43.330Z,10.10
2017-12-21T12:44:10.962Z,12.50
2017-12-21T12:46:39.381Z,11.90
2017-12-21T12:49:07.137Z,11.27
2017-12-21T12:51:34.785Z,8.43
2017-12-21T12:54:02.401Z,9.23
2017-12-21T12:56:30.029Z,11.68
2017-12-21T12:58:57.803Z,12.23
2017-12-21T13:01:25.435Z,11.88
2017-12-21T13:03:53.108Z,11.27
2017-12-21T13:06:20.744Z,10.35
2017-12-21T13:08:48.406Z,11.80
2017-12-21T13:11:16.220Z,12.30
2017-12-21T13:13:43.841Z,12.05
2017-12-21T13:16:12.288Z,14.05
2017-12-21T13:18:39.975Z,13.88
2017-12-21T13:21:07.639Z,8.15
2017-12-21T13:23:35.290Z,11.02
2017-12-21T13:26:02.917Z,17.37
2017-12-21T13:28:30.589Z,16.83
2017-12-21T13:30:58.294Z,11.82
2017-12-21T13:33:25.937Z,16.02
2017-12-21T13:35:54.523Z,16.85
2017-12-21T13:38:22.158Z,17.77
2017-12-21T13:40:49.846Z,18.85
2017-12-21T13:43:17.717Z,19.05
2017-12-21T13:45:45.345Z,17.25
2017-12-21T13:48:13.014Z,18.65
2017-12-21T13:50:40.647Z,18.40
2017-12-21T13:53:08.366Z,18.52
2017-12-21T13:55:36.093Z,20.17
2017-12-21T13:58:04.571Z,18.30
2017-12-21T14:00:32.245Z,20.52
2017-12-21T14:02:59.906Z,18.77
2017-12-21T14:05:27.735Z,18.52
2017-12-21T14:07:55.370Z,19.90
2017-12-21T14:10:23.011Z,21.25
2017-12-21T14:12:50.671Z,21.70
2017-12-21T14:15:18.535Z,22.30
2017-12-21T14:17:46.250Z,26.45
2017-12-21T14:20:14.730Z,32.83
2017-12-21T14:22:42.366Z,24.90
2017-12-21T14:25:10.014Z,26.00
2017-12-21T14:27:37.766Z,22.42
2017-12-21T14:30:05.412Z,27.58
2017-12-21T14:32:33.057Z,23.85
2017-12-21T14:35:00.690Z,26.80
2017-12-21T14:37:28.388Z,20.83
2017-12-21T14:39:56.367Z,26.42
2017-12-21T14:42:24.796Z,20.30
2017-12-21T14:44:52.430Z,28.30
2017-12-21T14:47:20.086Z,25.35
2017-12-21T14:49:47.830Z,21.70
2017-12-21T14:52:15.488Z,24.08
2017-12-21T14:54:43.171Z,21.52
2017-12-21T14:57:10.797Z,24.12
2017-12-21T14:59:38.423Z,19.87
2017-12-21T15:02:06.198Z,23.77
2017-12-21T15:04:33.845Z,25.92
2017-12-21T15:07:01.510Z,35.15
2017-12-21T15:09:29.143Z,28.73
2017-12-21T15:11:57.039Z,29.85
2017-12-21T15:14:24.690Z,30.58
2017-12-21T15:16:52.316Z,28.67
2017-12-21T15:19:20.735Z,33.55
2017-12-21T15:21:48.350Z,30.48
2017-12-21T15:24:17.034Z,31.48
2017-12-21T15:26:44.697Z,34.22
2017-12-21T15:29:13.837Z,31.87
2017-12-21T15:31:41.518Z,29.65
2017-12-21T15:34:09.300Z,36.65
2017-12-21T15:36:37.158Z,38.25
2017-12-21T15:39:05.583Z,35.28
2017-12-21T15:41:33.239Z,25.27
2017-12-21T15:44:00.890Z,34.78
2017-12-21T15:46:28.537Z,32.58
2017-12-21T15:48:56.195Z,31.40
2017-12-21T15:51:24.717Z,24.95
2017-12-21T15:53:52.375Z,30.92
2017-12-21T15:56:20.067Z,31.35
2017-12-21T15:58:48.438Z,29.40
2017-12-21T16:01:16.208Z,33.95
2017-12-21T16:03:43.877Z,35.45
2017-12-21T16:06:11.521Z,36.78
2017-12-21T16:08:39.244Z,33.58
2017-12-21T16:11:07.813Z,41.28
2017-12-21T16:13:36.329Z,39.97
2017-12-21T16:16:04.142Z,30.80
2017-12-21T16:18:31.879Z,32.88
2017-12-21T16:20:59.538Z,31.75
2017-12-21T16:23:27.344Z,38.67
2017-12-21T16:25:54.971Z,30.42
2017-12-21T16:28:22.622Z,25.98
2017-12-21T16:30:50.243Z,25.65
2017-12-21T16:33:19.712Z,33.33
2017-12-21T16:35:47.366Z,32.15
2017-12-21T16:38:15.079Z,36.22
2017-12-21T16:40:42.739Z,36.17
2017-12-21T16:43:11.186Z,29.30
2017-12-21T16:45:38.938Z,40.05
2017-12-21T16:48:06.845Z,28.23
2017-12-21T16:50:34.581Z,30.67
2017-12-21T16:53:02.284Z,31.87
2017-12-21T16:55:29.954Z,37.67
2017-12-21T16:57:58.383Z,37.80
2017-12-21T17:00:26.226Z,32.85
2017-12-21T17:02:53.864Z,29.48
2017-12-21T17:05:21.519Z,31.35
2017-12-21T17:07:49.153Z,27.33
2017-12-21T17:10:17.598Z,36.53
2017-12-21T17:12:45.278Z,41.17
2017-12-21T17:15:12.902Z,35.20
2017-12-21T17:17:40.549Z,35.25
2017-12-21T17:20:08.684Z,27.15
2017-12-21T17:22:37.326Z,50.50
2017-12-21T17:25:05.368Z,28.65
2017-12-21T17:27:33.439Z,37.97
2017-12-21T17:30:01.131Z,39.78
2017-12-21T17:32:28.821Z,27.10
2017-12-21T17:34:56.686Z,28.10
2017-12-21T17:37:24.319Z,35.55
2017-12-21T17:39:52.550Z,23.62
2017-12-21T17:42:21.390Z,36.60
2017-12-21T17:44:49.062Z,38.88
2017-12-21T17:47:16.988Z,37.63
2017-12-21T17:49:45.778Z,37.05
2017-12-21T17:52:13.464Z,38.00
2017-12-21T17:54:41.135Z,37.15
2017-12-21T17:57:09.347Z,41.88
2017-12-21T17:59:37.165Z,28.48
2017-12-21T18:02:08.977Z,24.80
2017-12-21T18:04:37.238Z,38.88
2017-12-21T18:07:04.867Z,35.13
2017-12-21T18:09:33.149Z,43.42
2017-12-21T18:12:04.037Z,31.80
2017-12-21T18:14:31.686Z,33.78
2017-12-21T18:16:59.384Z,35.38
2017-12-21T18:19:27.156Z,34.75
2017-12-21T18:21:55.586Z,36.17
2017-12-21T18:24:23.257Z,42.53
2017-12-21T18:26:51.643Z,36.88
2017-12-21T18:29:19.306Z,44.60
2017-12-21T18:31:47.018Z,36.80
2017-12-21T18:34:15.432Z,41.10
2017-12-21T18:36:43.095Z,33.00
2017-12-21T18:39:10.867Z,36.60
2017-12-21T18:41:38.522Z,45.28
2017-12-21T18:44:07.109Z,31.75
2017-12-21T18:46:34.756Z,29.40
2017-12-21T18:49:02.455Z,37.05
2017-12-21T18:51:30.099Z,32.50
2017-12-21T18:53:57.807Z,38.42
2017-12-21T18:56:25.433Z,39.95
2017-12-21T18:58:53.116Z,35.85
2017-12-21T19:01:20.819Z,33.17
2017-12-21T19:03:48.451Z,28.87
2017-12-21T19:06:16.251Z,30.70
2017-12-21T19:08:43.898Z,26.10
2017-12-21T19:11:11.668Z,34.80
2017-12-21T19:13:39.340Z,33.40
2017-12-21T19:16:07.163Z,29.33
2017-12-21T19:18:34.827Z,28.95
2017-12-21T19:21:03.070Z,24.33
2017-12-21T19:23:31.152Z,31.87
2017-12-21T19:25:58.881Z,38.50
2017-12-21T19:28:26.731Z,33.05
2017-12-21T19:30:54.398Z,37.65
2017-12-21T19:33:22.193Z,37.08
2017-12-21T19:35:49.997Z,29.80
2017-12-21T19:38:17.777Z,24.98
2017-12-21T19:40:45.402Z,27.33
2017-12-21T19:43:13.056Z,31.40
2017-12-21T19:45:40.768Z,30.05
2017-12-21T19:48:08.490Z,32.10
2017-12-21T19:50:45.828Z,30.83
2017-12-21T19:53:23.297Z,28.42
2017-12-21T19:56:01.331Z,26.55
2017-12-21T19:58:36.946Z,21.12
2017-12-21T20:01:05.294Z,28.55
2017-12-21T20:03:33.754Z,22.62
2017-12-21T20:06:01.411Z,24.42
2017-12-21T20:08:29.239Z,28.42
2017-12-21T20:10:57.408Z,25.95
2017-12-21T20:13:25.931Z,22.85
2017-12-21T20:15:53.801Z,27.58
2017-12-21T20:18:21.541Z,23.75
2017-12-21T20:20:49.199Z,23.52
2017-12-21T20:23:17.383Z,21.45
2017-12-21T20:25:45.883Z,18.42
2017-12-21T20:28:13.838Z,17.75
2017-12-21T20:30:41.468Z,16.15
2017-12-21T20:33:09.945Z,16.40
2017-12-21T20:35:37.929Z,19.27
2017-12-21T20:38:05.855Z,20.80
2017-12-21T20:40:33.546Z,17.92
2017-12-21T20:43:01.270Z,23.35
2017-12-21T20:45:28.937Z,21.08
2017-12-21T20:47:56.722Z,22.50
2017-12-21T20:50:24.573Z,22.05
2017-12-21T20:52:52.962Z,17.05
2017-12-21T20:55:20.711Z,21.50
2017-12-21T20:57:50.223Z,26.62
2017-12-21T21:00:18.117Z,33.03
2017-12-21T21:02:48.160Z,33.92
2017-12-21T21:05:16.379Z,20.62
2017-12-21T21:07:48.445Z,35.90
2017-12-21T21:10:18.525Z,40.42
2017-12-21T21:12:47.705Z,25.92
2017-12-21T21:15:16.938Z,34.67
2017-12-21T21:17:45.400Z,36.20
2017-12-21T21:20:14.249Z,28.02
2017-12-21T21:22:43.003Z,30.70
2017-12-21T21:25:11.826Z,28.12
2017-12-21T21:27:39.459Z,29.33
2017-12-21T21:30:09.291Z,28.90
2017-12-21T21:32:39.111Z,24.73
2017-12-21T21:35:07.134Z,31.65
2017-12-21T21:37:34.799Z,29.98
2017-12-21T21:40:02.425Z,28.90
2017-12-21T21:42:30.075Z,33.28
2017-12-21T21:44:58.788Z,32.22
2017-12-21T21:47:27.016Z,25.75
2017-12-21T21:49:55.558Z,31.40
2017-12-21T21:52:23.308Z,27.67
2017-12-21T21:54:50.929Z,34.78
2017-12-21T21:57:19.466Z,36.10
2017-12-21T21:59:47.880Z,42.50
2017-12-21T22:02:15.769Z,35.25
2017-12-21T22:04:43.808Z,33.28
2017-12-21T22:07:11.566Z,32.28
2017-12-21T22:09:42.142Z,32.92
2017-12-21T22:12:10.557Z,36.95
2017-12-21T22:14:38.547Z,38.30
2017-12-21T22:17:07.838Z,36.15
2017-12-21T22:19:35.474Z,29.65
2017-12-21T22:22:03.132Z,40.35
2017-12-21T22:24:30.765Z,39.30
2017-12-21T22:26:58.433Z,41.55
2017-12-21T22:29:26.710Z,36.88
2017-12-21T22:31:54.350Z,39.33
2017-12-21T22:34:31.044Z,33.05
2017-12-21T22:37:03.388Z,37.42
2017-12-21T22:39:31.205Z,44.25
2017-12-21T22:41:58.854Z,42.38
2017-12-21T22:44:26.746Z,40.85
2017-12-21T22:46:54.463Z,49.72
2017-12-21T22:49:22.926Z,35.92
2017-12-21T22:51:50.632Z,35.80
2017-12-21T22:54:18.302Z,47.45
2017-12-21T22:56:46.083Z,45.22
2017-12-21T22:59:13.861Z,48.72
2017-12-21T23:01:41.548Z,40.83
2017-12-21T23:04:09.245Z,39.75
2017-12-21T23:06:37.187Z,33.30
2017-12-21T23:09:09.058Z,38.40
2017-12-21T23:11:36.801Z,47.25
2017-12-21T23:14:04.432Z,42.00
2017-12-21T23:16:32.146Z,39.97
2017-12-21T23:18:59.858Z,41.80
2017-12-21T23:21:27.689Z,38.92
2017-12-21T23:23:55.429Z,47.62
2017-12-21T23:26:23.062Z,55.47
2017-12-21T23:28:50.733Z,49.13
2017-12-21T23:31:18.401Z,55.10
2017-12-21T23:33:46.115Z,37.78
2017-12-21T23:36:14.589Z,48.17
2017-12-21T23:38:42.258Z,60.28
2017-12-21T23:41:09.949Z,58.83
2017-12-21T23:43:37.640Z,47.80
2017-12-21T23:46:06.812Z,57.92
2017-12-21T23:48:35.288Z,52.92
2017-12-21T23:51:03.131Z,44.75
2017-12-21T23:53:30.791Z,45.88
2017-12-21T23:55:58.425Z,51.37
2017-12-21T23:58:26.211Z,45.55
